sensor_id;sensor_type;location;lat;lon;timestamp;P1;durP1;ratioP1;P2;durP2;ratioP2
43297;SDS011;28892;55.640;37.532;2023-04-29T00:01:02;2.47;;;1.90;;
43297;SDS011;28892;55.640;37.532;2023-04-29T00:03:30;2.60;;;2.40;;
43297;SDS011;28892;55.640;37.532;2023-04-29T00:05:59;2.65;;;2.30;;
43297;SDS011;28892;55.640;37.532;2023-04-29T00:08:26;2.35;;;2.15;;
43297;SDS011;28892;55.640;37.532;2023-04-29T00:10:52;2.65;;;2.15;;
43297;SDS011;28892;55.640;37.532;2023-04-29T00:20:24;2.80;;;2.33;;
43297;SDS011;28892;55.640;37.532;2023-04-29T00:22:51;3.70;;;2.58;;
43297;SDS011;28892;55.640;37.532;2023-04-29T00:25:17;2.30;;;2.10;;
43297;SDS011;28892;55.640;37.532;2023-04-29T00:27:42;3.05;;;2.28;;
43297;SDS011;28892;55.640;37.532;2023-04-29T00:30:08;4.65;;;2.30;;
43297;SDS011;28892;55.640;37.532;2023-04-29T00:32:35;2.85;;;2.35;;
43297;SDS011;28892;55.640;37.532;2023-04-29T00:35:01;3.15;;;2.40;;
43297;SDS011;28892;55.640;37.532;2023-04-29T00:37:29;2.20;;;2.00;;
43297;SDS011;28892;55.640;37.532;2023-04-29T00:39:56;2.72;;;1.80;;
43297;SDS011;28892;55.640;37.532;2023-04-29T00:42:21;2.50;;;1.85;;
43297;SDS011;28892;55.640;37.532;2023-04-29T00:44:48;2.35;;;2.08;;
43297;SDS011;28892;55.640;37.532;2023-04-29T00:47:14;2.08;;;1.92;;
43297;SDS011;28892;55.640;37.532;2023-04-29T00:49:40;2.28;;;1.95;;
43297;SDS011;28892;55.640;37.532;2023-04-29T00:52:07;2.30;;;2.10;;
43297;SDS011;28892;55.640;37.532;2023-04-29T00:54:36;1.92;;;1.80;;
43297;SDS011;28892;55.640;37.532;2023-04-29T00:57:03;2.67;;;1.75;;
43297;SDS011;28892;55.640;37.532;2023-04-29T00:59:31;2.83;;;2.10;;
43297;SDS011;28892;55.640;37.532;2023-04-29T01:02:00;2.10;;;1.80;;
43297;SDS011;28892;55.640;37.532;2023-04-29T01:04:27;3.92;;;2.20;;
43297;SDS011;28892;55.640;37.532;2023-04-29T01:12:01;2.50;;;2.30;;
43297;SDS011;28892;55.640;37.532;2023-04-29T01:14:36;2.47;;;2.28;;
43297;SDS011;28892;55.640;37.532;2023-04-29T01:17:05;3.13;;;2.22;;
43297;SDS011;28892;55.640;37.532;2023-04-29T01:22:12;2.08;;;1.88;;
43297;SDS011;28892;55.640;37.532;2023-04-29T01:24:43;2.60;;;2.08;;
43297;SDS011;28892;55.640;37.532;2023-04-29T01:32:45;2.40;;;2.20;;
43297;SDS011;28892;55.640;37.532;2023-04-29T01:37:54;2.50;;;1.75;;
43297;SDS011;28892;55.640;37.532;2023-04-29T01:40:46;1.60;;;1.50;;
43297;SDS011;28892;55.640;37.532;2023-04-29T01:43:23;1.98;;;1.70;;
43297;SDS011;28892;55.640;37.532;2023-04-29T01:45:54;2.00;;;1.90;;
43297;SDS011;28892;55.640;37.532;2023-04-29T01:48:23;1.77;;;1.67;;
43297;SDS011;28892;55.640;37.532;2023-04-29T01:50:49;1.63;;;1.52;;
43297;SDS011;28892;55.640;37.532;2023-04-29T01:53:15;1.40;;;1.30;;
43297;SDS011;28892;55.640;37.532;2023-04-29T01:55:43;1.60;;;1.50;;
43297;SDS011;28892;55.640;37.532;2023-04-29T01:58:15;1.70;;;1.60;;
43297;SDS011;28892;55.640;37.532;2023-04-29T02:00:53;2.40;;;1.42;;
43297;SDS011;28892;55.640;37.532;2023-04-29T02:03:20;1.50;;;1.40;;
43297;SDS011;28892;55.640;37.532;2023-04-29T02:05:49;1.80;;;1.70;;
43297;SDS011;28892;55.640;37.532;2023-04-29T02:08:16;2.25;;;1.80;;
43297;SDS011;28892;55.640;37.532;2023-04-29T02:10:54;1.77;;;1.63;;
43297;SDS011;28892;55.640;37.532;2023-04-29T02:13:41;3.17;;;1.70;;
43297;SDS011;28892;55.640;37.532;2023-04-29T02:16:09;1.95;;;1.50;;
43297;SDS011;28892;55.640;37.532;2023-04-29T02:18:37;1.50;;;1.40;;
43297;SDS011;28892;55.640;37.532;2023-04-29T02:21:04;3.50;;;1.55;;
43297;SDS011;28892;55.640;37.532;2023-04-29T02:23:33;1.35;;;1.25;;
43297;SDS011;28892;55.640;37.532;2023-04-29T02:26:00;1.90;;;1.63;;
43297;SDS011;28892;55.640;37.532;2023-04-29T02:28:26;1.50;;;1.40;;
43297;SDS011;28892;55.640;37.532;2023-04-29T02:30:52;2.15;;;1.60;;
43297;SDS011;28892;55.640;37.532;2023-04-29T02:33:19;1.70;;;1.60;;
43297;SDS011;28892;55.640;37.532;2023-04-29T02:35:45;1.48;;;1.38;;
43297;SDS011;28892;55.640;37.532;2023-04-29T02:38:10;1.42;;;1.33;;
43297;SDS011;28892;55.640;37.532;2023-04-29T02:40:41;1.63;;;1.52;;
43297;SDS011;28892;55.640;37.532;2023-04-29T02:43:07;1.55;;;1.45;;
43297;SDS011;28892;55.640;37.532;2023-04-29T02:45:37;1.60;;;1.50;;
43297;SDS011;28892;55.640;37.532;2023-04-29T02:48:04;2.15;;;1.60;;
43297;SDS011;28892;55.640;37.532;2023-04-29T02:50:33;1.60;;;1.50;;
43297;SDS011;28892;55.640;37.532;2023-04-29T02:53:00;1.95;;;1.63;;
43297;SDS011;28892;55.640;37.532;2023-04-29T02:55:27;2.05;;;1.35;;
43297;SDS011;28892;55.640;37.532;2023-04-29T02:58:23;2.75;;;1.50;;
43297;SDS011;28892;55.640;37.532;2023-04-29T03:01:18;2.80;;;1.60;;
43297;SDS011;28892;55.640;37.532;2023-04-29T03:03:53;1.85;;;1.75;;
43297;SDS011;28892;55.640;37.532;2023-04-29T03:06:59;1.80;;;1.60;;
43297;SDS011;28892;55.640;37.532;2023-04-29T03:09:26;2.22;;;1.40;;
43297;SDS011;28892;55.640;37.532;2023-04-29T03:12:06;1.80;;;1.70;;
43297;SDS011;28892;55.640;37.532;2023-04-29T03:14:44;1.95;;;1.80;;
43297;SDS011;28892;55.640;37.532;2023-04-29T03:17:32;1.77;;;1.40;;
43297;SDS011;28892;55.640;37.532;2023-04-29T03:20:03;2.28;;;1.65;;
43297;SDS011;28892;55.640;37.532;2023-04-29T03:22:38;3.05;;;1.77;;
43297;SDS011;28892;55.640;37.532;2023-04-29T03:25:29;1.85;;;1.60;;
43297;SDS011;28892;55.640;37.532;2023-04-29T03:27:56;3.72;;;1.88;;
43297;SDS011;28892;55.640;37.532;2023-04-29T03:30:22;2.88;;;1.88;;
43297;SDS011;28892;55.640;37.532;2023-04-29T03:32:51;2.13;;;1.90;;
43297;SDS011;28892;55.640;37.532;2023-04-29T03:35:27;3.13;;;2.67;;
43297;SDS011;28892;55.640;37.532;2023-04-29T03:38:12;2.28;;;1.70;;
43297;SDS011;28892;55.640;37.532;2023-04-29T03:40:38;1.85;;;1.75;;
43297;SDS011;28892;55.640;37.532;2023-04-29T03:43:07;1.90;;;1.60;;
43297;SDS011;28892;55.640;37.532;2023-04-29T03:45:34;2.00;;;1.50;;
43297;SDS011;28892;55.640;37.532;2023-04-29T03:48:01;1.83;;;1.63;;
43297;SDS011;28892;55.640;37.532;2023-04-29T03:50:28;1.83;;;1.70;;
43297;SDS011;28892;55.640;37.532;2023-04-29T03:52:54;1.60;;;1.50;;
43297;SDS011;28892;55.640;37.532;2023-04-29T03:55:20;1.60;;;1.50;;
43297;SDS011;28892;55.640;37.532;2023-04-29T03:57:47;2.20;;;1.40;;
43297;SDS011;28892;55.640;37.532;2023-04-29T04:00:15;2.88;;;2.45;;
43297;SDS011;28892;55.640;37.532;2023-04-29T04:02:49;1.60;;;1.50;;
43297;SDS011;28892;55.640;37.532;2023-04-29T04:05:15;1.75;;;1.65;;
43297;SDS011;28892;55.640;37.532;2023-04-29T04:07:48;1.95;;;1.60;;
43297;SDS011;28892;55.640;37.532;2023-04-29T04:10:32;1.30;;;1.20;;
43297;SDS011;28892;55.640;37.532;2023-04-29T04:13:01;1.88;;;1.40;;
43297;SDS011;28892;55.640;37.532;2023-04-29T04:15:27;1.48;;;1.38;;
43297;SDS011;28892;55.640;37.532;2023-04-29T04:18:01;1.33;;;1.20;;
43297;SDS011;28892;55.640;37.532;2023-04-29T04:20:27;1.50;;;1.27;;
43297;SDS011;28892;55.640;37.532;2023-04-29T04:22:56;4.45;;;3.83;;
43297;SDS011;28892;55.640;37.532;2023-04-29T04:25:36;3.63;;;2.55;;
43297;SDS011;28892;55.640;37.532;2023-04-29T04:28:22;1.50;;;1.40;;
43297;SDS011;28892;55.640;37.532;2023-04-29T04:30:57;1.85;;;1.60;;
43297;SDS011;28892;55.640;37.532;2023-04-29T04:33:24;1.40;;;1.30;;
43297;SDS011;28892;55.640;37.532;2023-04-29T04:35:52;3.20;;;1.40;;
43297;SDS011;28892;55.640;37.532;2023-04-29T04:38:17;1.80;;;1.60;;
43297;SDS011;28892;55.640;37.532;2023-04-29T04:40:53;2.45;;;1.80;;
43297;SDS011;28892;55.640;37.532;2023-04-29T04:43:43;2.10;;;1.73;;
43297;SDS011;28892;55.640;37.532;2023-04-29T04:46:21;1.98;;;1.77;;
43297;SDS011;28892;55.640;37.532;2023-04-29T04:49:00;2.90;;;1.83;;
43297;SDS011;28892;55.640;37.532;2023-04-29T04:51:32;1.88;;;1.70;;
43297;SDS011;28892;55.640;37.532;2023-04-29T04:53:58;2.28;;;1.90;;
43297;SDS011;28892;55.640;37.532;2023-04-29T04:56:30;2.28;;;2.08;;
43297;SDS011;28892;55.640;37.532;2023-04-29T04:59:04;2.35;;;2.00;;
43297;SDS011;28892;55.640;37.532;2023-04-29T05:01:35;3.25;;;2.13;;
43297;SDS011;28892;55.640;37.532;2023-04-29T05:04:04;2.83;;;2.35;;
43297;SDS011;28892;55.640;37.532;2023-04-29T05:06:30;3.50;;;2.60;;
43297;SDS011;28892;55.640;37.532;2023-04-29T05:09:01;3.55;;;2.20;;
43297;SDS011;28892;55.640;37.532;2023-04-29T05:11:28;2.50;;;2.00;;
43297;SDS011;28892;55.640;37.532;2023-04-29T05:14:12;5.22;;;2.55;;
43297;SDS011;28892;55.640;37.532;2023-04-29T05:16:38;3.60;;;2.25;;
43297;SDS011;28892;55.640;37.532;2023-04-29T05:19:06;2.40;;;2.20;;
43297;SDS011;28892;55.640;37.532;2023-04-29T05:21:40;3.55;;;2.50;;
43297;SDS011;28892;55.640;37.532;2023-04-29T05:24:09;4.32;;;2.60;;
43297;SDS011;28892;55.640;37.532;2023-04-29T05:26:35;3.30;;;3.00;;
43297;SDS011;28892;55.640;37.532;2023-04-29T05:29:04;3.15;;;2.85;;
43297;SDS011;28892;55.640;37.532;2023-04-29T05:31:41;3.50;;;2.88;;
43297;SDS011;28892;55.640;37.532;2023-04-29T05:34:08;2.75;;;2.50;;
43297;SDS011;28892;55.640;37.532;2023-04-29T05:36:34;3.88;;;2.63;;
43297;SDS011;28892;55.640;37.532;2023-04-29T05:39:06;4.35;;;3.00;;
43297;SDS011;28892;55.640;37.532;2023-04-29T05:43:20;3.40;;;2.90;;
43297;SDS011;28892;55.640;37.532;2023-04-29T05:46:07;3.35;;;2.70;;
43297;SDS011;28892;55.640;37.532;2023-04-29T05:51:28;5.30;;;2.47;;
43297;SDS011;28892;55.640;37.532;2023-04-29T05:54:12;4.47;;;2.78;;
43297;SDS011;28892;55.640;37.532;2023-04-29T05:56:40;4.57;;;3.42;;
43297;SDS011;28892;55.640;37.532;2023-04-29T05:59:08;3.67;;;3.00;;
43297;SDS011;28892;55.640;37.532;2023-04-29T06:01:34;3.00;;;2.70;;
43297;SDS011;28892;55.640;37.532;2023-04-29T06:04:01;2.97;;;2.65;;
43297;SDS011;28892;55.640;37.532;2023-04-29T06:06:49;3.28;;;2.97;;
43297;SDS011;28892;55.640;37.532;2023-04-29T06:12:53;3.88;;;3.15;;
43297;SDS011;28892;55.640;37.532;2023-04-29T06:15:19;4.28;;;3.42;;
43297;SDS011;28892;55.640;37.532;2023-04-29T06:17:46;6.00;;;3.65;;
43297;SDS011;28892;55.640;37.532;2023-04-29T06:20:13;4.50;;;3.72;;
43297;SDS011;28892;55.640;37.532;2023-04-29T06:22:39;4.82;;;3.72;;
43297;SDS011;28892;55.640;37.532;2023-04-29T06:25:14;5.63;;;4.28;;
43297;SDS011;28892;55.640;37.532;2023-04-29T06:27:49;4.78;;;3.97;;
43297;SDS011;28892;55.640;37.532;2023-04-29T06:30:25;6.80;;;4.90;;
43297;SDS011;28892;55.640;37.532;2023-04-29T06:32:51;6.00;;;5.40;;
43297;SDS011;28892;55.640;37.532;2023-04-29T06:35:28;6.28;;;5.60;;
43297;SDS011;28892;55.640;37.532;2023-04-29T06:38:13;6.70;;;6.03;;
43297;SDS011;28892;55.640;37.532;2023-04-29T06:40:42;6.97;;;6.28;;
43297;SDS011;28892;55.640;37.532;2023-04-29T06:43:13;8.93;;;6.75;;
43297;SDS011;28892;55.640;37.532;2023-04-29T06:46:21;7.70;;;6.90;;
43297;SDS011;28892;55.640;37.532;2023-04-29T06:48:58;7.20;;;6.18;;
43297;SDS011;28892;55.640;37.532;2023-04-29T06:54:25;6.05;;;5.45;;
43297;SDS011;28892;55.640;37.532;2023-04-29T06:56:53;6.07;;;5.22;;
43297;SDS011;28892;55.640;37.532;2023-04-29T06:59:20;6.03;;;5.05;;
43297;SDS011;28892;55.640;37.532;2023-04-29T07:01:50;5.72;;;5.05;;
43297;SDS011;28892;55.640;37.532;2023-04-29T07:04:19;4.82;;;4.40;;
43297;SDS011;28892;55.640;37.532;2023-04-29T07:06:49;4.47;;;4.07;;
43297;SDS011;28892;55.640;37.532;2023-04-29T07:09:16;5.70;;;4.68;;
43297;SDS011;28892;55.640;37.532;2023-04-29T07:11:45;5.82;;;4.05;;
43297;SDS011;28892;55.640;37.532;2023-04-29T07:14:11;5.47;;;3.97;;
43297;SDS011;28892;55.640;37.532;2023-04-29T07:17:03;3.80;;;3.20;;
43297;SDS011;28892;55.640;37.532;2023-04-29T07:19:44;4.20;;;3.80;;
43297;SDS011;28892;55.640;37.532;2023-04-29T07:23:11;3.45;;;3.00;;
43297;SDS011;28892;55.640;37.532;2023-04-29T07:26:11;3.88;;;3.05;;
43297;SDS011;28892;55.640;37.532;2023-04-29T07:32:56;4.15;;;3.10;;
43297;SDS011;28892;55.640;37.532;2023-04-29T07:35:31;4.53;;;3.90;;
43297;SDS011;28892;55.640;37.532;2023-04-29T07:38:01;3.67;;;3.20;;
43297;SDS011;28892;55.640;37.532;2023-04-29T07:40:37;3.85;;;3.10;;
43297;SDS011;28892;55.640;37.532;2023-04-29T07:43:09;3.63;;;3.20;;
43297;SDS011;28892;55.640;37.532;2023-04-29T07:45:35;3.40;;;3.10;;
43297;SDS011;28892;55.640;37.532;2023-04-29T07:48:09;4.55;;;3.15;;
43297;SDS011;28892;55.640;37.532;2023-04-29T07:50:43;4.10;;;3.70;;
43297;SDS011;28892;55.640;37.532;2023-04-29T07:53:25;3.53;;;3.00;;
43297;SDS011;28892;55.640;37.532;2023-04-29T07:55:54;4.82;;;3.50;;
43297;SDS011;28892;55.640;37.532;2023-04-29T07:58:22;3.85;;;3.25;;
43297;SDS011;28892;55.640;37.532;2023-04-29T08:01:04;5.13;;;3.33;;
43297;SDS011;28892;55.640;37.532;2023-04-29T08:04:01;5.05;;;3.30;;
43297;SDS011;28892;55.640;37.532;2023-04-29T08:07:03;4.93;;;3.20;;
43297;SDS011;28892;55.640;37.532;2023-04-29T08:09:32;4.35;;;3.25;;
43297;SDS011;28892;55.640;37.532;2023-04-29T08:12:17;4.50;;;3.80;;
43297;SDS011;28892;55.640;37.532;2023-04-29T08:15:21;4.95;;;3.20;;
43297;SDS011;28892;55.640;37.532;2023-04-29T08:18:04;3.35;;;2.85;;
43297;SDS011;28892;55.640;37.532;2023-04-29T08:20:50;4.22;;;3.13;;
43297;SDS011;28892;55.640;37.532;2023-04-29T08:23:56;3.75;;;2.72;;
43297;SDS011;28892;55.640;37.532;2023-04-29T08:26:28;3.63;;;3.33;;
43297;SDS011;28892;55.640;37.532;2023-04-29T08:29:07;3.95;;;2.92;;
43297;SDS011;28892;55.640;37.532;2023-04-29T08:31:54;9.90;;;3.30;;
43297;SDS011;28892;55.640;37.532;2023-04-29T08:34:22;5.57;;;3.53;;
43297;SDS011;28892;55.640;37.532;2023-04-29T08:36:48;3.40;;;2.85;;
43297;SDS011;28892;55.640;37.532;2023-04-29T08:39:15;5.97;;;3.20;;
43297;SDS011;28892;55.640;37.532;2023-04-29T08:41:41;3.25;;;2.55;;
43297;SDS011;28892;55.640;37.532;2023-04-29T08:44:10;3.40;;;2.55;;
43297;SDS011;28892;55.640;37.532;2023-04-29T08:46:45;3.53;;;3.03;;
43297;SDS011;28892;55.640;37.532;2023-04-29T08:49:11;5.38;;;2.97;;
43297;SDS011;28892;55.640;37.532;2023-04-29T08:51:38;3.55;;;3.08;;
43297;SDS011;28892;55.640;37.532;2023-04-29T08:54:13;3.47;;;2.67;;
43297;SDS011;28892;55.640;37.532;2023-04-29T09:01:42;4.47;;;3.20;;
43297;SDS011;28892;55.640;37.532;2023-04-29T09:04:40;3.03;;;2.28;;
43297;SDS011;28892;55.640;37.532;2023-04-29T09:07:17;5.95;;;3.60;;
43297;SDS011;28892;55.640;37.532;2023-04-29T09:09:45;4.28;;;3.35;;
43297;SDS011;28892;55.640;37.532;2023-04-29T09:12:12;4.80;;;2.60;;
43297;SDS011;28892;55.640;37.532;2023-04-29T09:14:47;4.03;;;2.70;;
43297;SDS011;28892;55.640;37.532;2023-04-29T09:17:40;4.35;;;2.75;;
43297;SDS011;28892;55.640;37.532;2023-04-29T09:22:51;5.75;;;2.47;;
43297;SDS011;28892;55.640;37.532;2023-04-29T09:25:24;5.07;;;2.60;;
43297;SDS011;28892;55.640;37.532;2023-04-29T09:27:54;2.75;;;2.50;;
43297;SDS011;28892;55.640;37.532;2023-04-29T09:30:20;3.88;;;2.85;;
43297;SDS011;28892;55.640;37.532;2023-04-29T09:33:02;7.37;;;3.10;;
43297;SDS011;28892;55.640;37.532;2023-04-29T09:35:32;3.20;;;2.75;;
43297;SDS011;28892;55.640;37.532;2023-04-29T09:38:10;4.22;;;2.38;;
43297;SDS011;28892;55.640;37.532;2023-04-29T09:40:41;3.55;;;2.20;;
43297;SDS011;28892;55.640;37.532;2023-04-29T09:43:26;4.65;;;2.60;;
43297;SDS011;28892;55.640;37.532;2023-04-29T09:45:56;3.67;;;3.00;;
43297;SDS011;28892;55.640;37.532;2023-04-29T09:51:01;3.22;;;2.63;;
43297;SDS011;28892;55.640;37.532;2023-04-29T09:53:29;2.50;;;2.10;;
43297;SDS011;28892;55.640;37.532;2023-04-29T09:56:46;3.85;;;2.17;;
43297;SDS011;28892;55.640;37.532;2023-04-29T09:59:20;2.65;;;2.30;;
43297;SDS011;28892;55.640;37.532;2023-04-29T10:02:15;3.10;;;2.20;;
43297;SDS011;28892;55.640;37.532;2023-04-29T10:04:54;2.63;;;2.13;;
43297;SDS011;28892;55.640;37.532;2023-04-29T10:08:12;2.83;;;2.38;;
43297;SDS011;28892;55.640;37.532;2023-04-29T10:17:23;4.80;;;2.20;;
43297;SDS011;28892;55.640;37.532;2023-04-29T10:21:20;4.47;;;2.63;;
43297;SDS011;28892;55.640;37.532;2023-04-29T10:32:35;3.72;;;2.63;;
43297;SDS011;28892;55.640;37.532;2023-04-29T10:35:15;5.10;;;2.40;;
43297;SDS011;28892;55.640;37.532;2023-04-29T10:41:03;4.70;;;2.70;;
43297;SDS011;28892;55.640;37.532;2023-04-29T10:44:12;4.72;;;2.40;;
43297;SDS011;28892;55.640;37.532;2023-04-29T10:46:41;4.05;;;2.40;;
43297;SDS011;28892;55.640;37.532;2023-04-29T10:49:07;5.95;;;2.83;;
43297;SDS011;28892;55.640;37.532;2023-04-29T10:51:42;5.65;;;2.50;;
43297;SDS011;28892;55.640;37.532;2023-04-29T10:54:16;7.60;;;4.10;;
43297;SDS011;28892;55.640;37.532;2023-04-29T10:56:51;5.47;;;3.47;;
43297;SDS011;28892;55.640;37.532;2023-04-29T10:59:20;6.20;;;2.80;;
43297;SDS011;28892;55.640;37.532;2023-04-29T11:01:51;5.13;;;2.40;;
43297;SDS011;28892;55.640;37.532;2023-04-29T11:04:21;3.25;;;2.00;;
43297;SDS011;28892;55.640;37.532;2023-04-29T11:06:51;3.10;;;2.13;;
43297;SDS011;28892;55.640;37.532;2023-04-29T11:09:31;4.15;;;2.55;;
43297;SDS011;28892;55.640;37.532;2023-04-29T11:12:03;2.92;;;2.47;;
43297;SDS011;28892;55.640;37.532;2023-04-29T11:14:42;5.22;;;2.15;;
43297;SDS011;28892;55.640;37.532;2023-04-29T11:17:23;3.47;;;2.00;;
43297;SDS011;28892;55.640;37.532;2023-04-29T11:19:49;4.30;;;2.20;;
43297;SDS011;28892;55.640;37.532;2023-04-29T11:24:52;3.25;;;2.15;;
43297;SDS011;28892;55.640;37.532;2023-04-29T11:27:29;4.57;;;2.28;;
43297;SDS011;28892;55.640;37.532;2023-04-29T11:29:57;5.38;;;3.20;;
43297;SDS011;28892;55.640;37.532;2023-04-29T11:32:30;3.33;;;2.55;;
43297;SDS011;28892;55.640;37.532;2023-04-29T11:35:29;3.45;;;2.10;;
43297;SDS011;28892;55.640;37.532;2023-04-29T11:38:28;3.72;;;2.30;;
43297;SDS011;28892;55.640;37.532;2023-04-29T11:41:06;2.55;;;2.10;;
43297;SDS011;28892;55.640;37.532;2023-04-29T11:46:53;2.97;;;2.03;;
43297;SDS011;28892;55.640;37.532;2023-04-29T11:49:48;3.72;;;2.40;;
43297;SDS011;28892;55.640;37.532;2023-04-29T12:06:05;3.05;;;1.90;;
43297;SDS011;28892;55.640;37.532;2023-04-29T12:08:31;3.38;;;1.83;;
43297;SDS011;28892;55.640;37.532;2023-04-29T12:10:59;3.95;;;2.13;;
43297;SDS011;28892;55.640;37.532;2023-04-29T12:13:27;5.15;;;1.95;;
43297;SDS011;28892;55.640;37.532;2023-04-29T12:15:55;3.03;;;1.92;;
43297;SDS011;28892;55.640;37.532;2023-04-29T12:18:27;2.38;;;2.08;;
43297;SDS011;28892;55.640;37.532;2023-04-29T12:20:55;3.08;;;2.05;;
43297;SDS011;28892;55.640;37.532;2023-04-29T12:23:24;4.35;;;2.25;;
43297;SDS011;28892;55.640;37.532;2023-04-29T12:25:54;4.53;;;2.58;;
43297;SDS011;28892;55.640;37.532;2023-04-29T12:28:25;2.80;;;2.45;;
43297;SDS011;28892;55.640;37.532;2023-04-29T12:30:52;3.88;;;2.38;;
43297;SDS011;28892;55.640;37.532;2023-04-29T12:33:28;6.00;;;2.20;;
43297;SDS011;28892;55.640;37.532;2023-04-29T12:35:59;4.60;;;2.35;;
43297;SDS011;28892;55.640;37.532;2023-04-29T12:38:29;5.95;;;2.30;;
43297;SDS011;28892;55.640;37.532;2023-04-29T12:41:03;4.65;;;2.05;;
43297;SDS011;28892;55.640;37.532;2023-04-29T12:43:41;7.00;;;3.35;;
43297;SDS011;28892;55.640;37.532;2023-04-29T12:46:09;5.00;;;2.65;;
43297;SDS011;28892;55.640;37.532;2023-04-29T12:48:42;2.38;;;1.70;;
43297;SDS011;28892;55.640;37.532;2023-04-29T12:51:11;3.67;;;2.40;;
43297;SDS011;28892;55.640;37.532;2023-04-29T12:53:37;4.28;;;2.70;;
43297;SDS011;28892;55.640;37.532;2023-04-29T12:56:04;4.30;;;2.67;;
43297;SDS011;28892;55.640;37.532;2023-04-29T12:58:31;6.82;;;2.90;;
43297;SDS011;28892;55.640;37.532;2023-04-29T13:01:01;2.92;;;2.35;;
43297;SDS011;28892;55.640;37.532;2023-04-29T13:03:27;5.03;;;2.80;;
43297;SDS011;28892;55.640;37.532;2023-04-29T13:05:53;4.63;;;2.72;;
43297;SDS011;28892;55.640;37.532;2023-04-29T13:08:19;4.03;;;2.25;;
43297;SDS011;28892;55.640;37.532;2023-04-29T13:10:45;5.43;;;2.38;;
43297;SDS011;28892;55.640;37.532;2023-04-29T13:13:11;3.67;;;1.88;;
43297;SDS011;28892;55.640;37.532;2023-04-29T13:15:37;5.20;;;2.72;;
43297;SDS011;28892;55.640;37.532;2023-04-29T13:18:04;4.32;;;2.20;;
43297;SDS011;28892;55.640;37.532;2023-04-29T13:20:30;2.47;;;1.90;;
43297;SDS011;28892;55.640;37.532;2023-04-29T13:22:57;3.65;;;2.22;;
43297;SDS011;28892;55.640;37.532;2023-04-29T13:25:24;3.75;;;2.05;;
43297;SDS011;28892;55.640;37.532;2023-04-29T13:27:50;4.28;;;2.20;;
43297;SDS011;28892;55.640;37.532;2023-04-29T13:30:16;5.18;;;2.20;;
43297;SDS011;28892;55.640;37.532;2023-04-29T13:32:41;5.38;;;2.45;;
43297;SDS011;28892;55.640;37.532;2023-04-29T13:35:08;3.63;;;1.80;;
43297;SDS011;28892;55.640;37.532;2023-04-29T13:37:36;2.67;;;1.85;;
43297;SDS011;28892;55.640;37.532;2023-04-29T13:40:02;4.05;;;2.10;;
43297;SDS011;28892;55.640;37.532;2023-04-29T13:42:30;3.83;;;2.00;;
43297;SDS011;28892;55.640;37.532;2023-04-29T13:44:56;4.00;;;2.47;;
43297;SDS011;28892;55.640;37.532;2023-04-29T13:47:22;3.97;;;2.00;;
43297;SDS011;28892;55.640;37.532;2023-04-29T13:49:48;3.42;;;1.63;;
43297;SDS011;28892;55.640;37.532;2023-04-29T13:52:17;4.88;;;1.80;;
43297;SDS011;28892;55.640;37.532;2023-04-29T13:55:22;2.58;;;1.77;;
43297;SDS011;28892;55.640;37.532;2023-04-29T13:57:59;4.38;;;2.20;;
43297;SDS011;28892;55.640;37.532;2023-04-29T14:00:27;3.75;;;1.85;;
43297;SDS011;28892;55.640;37.532;2023-04-29T14:03:29;2.78;;;1.50;;
43297;SDS011;28892;55.640;37.532;2023-04-29T14:05:48;3.60;;;1.70;;
43297;SDS011;28892;55.640;37.532;2023-04-29T14:08:15;3.47;;;1.77;;
43297;SDS011;28892;55.640;37.532;2023-04-29T14:10:41;5.38;;;2.25;;
43297;SDS011;28892;55.640;37.532;2023-04-29T14:13:07;2.95;;;1.73;;
43297;SDS011;28892;55.640;37.532;2023-04-29T14:15:33;3.08;;;1.80;;
43297;SDS011;28892;55.640;37.532;2023-04-29T14:20:51;1.90;;;1.60;;
43297;SDS011;28892;55.640;37.532;2023-04-29T14:23:19;4.07;;;2.03;;
43297;SDS011;28892;55.640;37.532;2023-04-29T14:25:46;3.55;;;2.28;;
43297;SDS011;28892;55.640;37.532;2023-04-29T14:28:12;5.53;;;2.40;;
43297;SDS011;28892;55.640;37.532;2023-04-29T14:30:41;3.45;;;2.70;;
43297;SDS011;28892;55.640;37.532;2023-04-29T14:33:08;2.40;;;2.10;;
43297;SDS011;28892;55.640;37.532;2023-04-29T14:35:34;5.72;;;1.92;;
43297;SDS011;28892;55.640;37.532;2023-04-29T14:38:06;3.67;;;2.10;;
43297;SDS011;28892;55.640;37.532;2023-04-29T14:40:34;3.00;;;1.80;;
43297;SDS011;28892;55.640;37.532;2023-04-29T14:43:02;3.28;;;2.22;;
43297;SDS011;28892;55.640;37.532;2023-04-29T14:45:34;3.05;;;1.60;;
43297;SDS011;28892;55.640;37.532;2023-04-29T14:48:02;4.82;;;2.17;;
43297;SDS011;28892;55.640;37.532;2023-04-29T14:50:31;11.43;;;2.15;;
43297;SDS011;28892;55.640;37.532;2023-04-29T14:52:56;5.60;;;2.05;;
43297;SDS011;28892;55.640;37.532;2023-04-29T14:55:23;3.90;;;1.92;;
43297;SDS011;28892;55.640;37.532;2023-04-29T14:57:49;4.35;;;1.63;;
43297;SDS011;28892;55.640;37.532;2023-04-29T15:00:15;2.83;;;1.40;;
43297;SDS011;28892;55.640;37.532;2023-04-29T15:02:41;4.13;;;1.85;;
43297;SDS011;28892;55.640;37.532;2023-04-29T15:05:07;3.13;;;2.15;;
43297;SDS011;28892;55.640;37.532;2023-04-29T15:07:35;3.10;;;1.92;;
43297;SDS011;28892;55.640;37.532;2023-04-29T15:10:01;3.65;;;1.70;;
43297;SDS011;28892;55.640;37.532;2023-04-29T15:12:53;2.42;;;1.58;;
43297;SDS011;28892;55.640;37.532;2023-04-29T15:15:29;5.45;;;1.60;;
43297;SDS011;28892;55.640;37.532;2023-04-29T15:17:55;4.07;;;1.50;;
43297;SDS011;28892;55.640;37.532;2023-04-29T15:23:42;4.50;;;2.10;;
43297;SDS011;28892;55.640;37.532;2023-04-29T15:26:16;3.38;;;1.88;;
43297;SDS011;28892;55.640;37.532;2023-04-29T15:28:42;5.20;;;1.60;;
43297;SDS011;28892;55.640;37.532;2023-04-29T15:31:10;3.42;;;1.98;;
43297;SDS011;28892;55.640;37.532;2023-04-29T15:33:41;2.72;;;1.70;;
43297;SDS011;28892;55.640;37.532;2023-04-29T15:36:08;3.55;;;1.70;;
43297;SDS011;28892;55.640;37.532;2023-04-29T15:38:33;1.92;;;1.45;;
43297;SDS011;28892;55.640;37.532;2023-04-29T15:41:00;1.67;;;1.42;;
43297;SDS011;28892;55.640;37.532;2023-04-29T15:43:29;6.72;;;2.72;;
43297;SDS011;28892;55.640;37.532;2023-04-29T15:46:04;5.10;;;2.67;;
43297;SDS011;28892;55.640;37.532;2023-04-29T15:48:30;6.35;;;3.22;;
43297;SDS011;28892;55.640;37.532;2023-04-29T15:50:56;3.25;;;1.85;;
43297;SDS011;28892;55.640;37.532;2023-04-29T15:53:29;3.13;;;1.67;;
43297;SDS011;28892;55.640;37.532;2023-04-29T15:59:14;2.78;;;1.75;;
43297;SDS011;28892;55.640;37.532;2023-04-29T16:01:50;5.78;;;1.95;;
43297;SDS011;28892;55.640;37.532;2023-04-29T16:04:16;4.68;;;2.50;;
43297;SDS011;28892;55.640;37.532;2023-04-29T16:06:43;5.20;;;2.35;;
43297;SDS011;28892;55.640;37.532;2023-04-29T16:09:09;5.10;;;2.45;;
43297;SDS011;28892;55.640;37.532;2023-04-29T16:11:37;8.65;;;2.83;;
43297;SDS011;28892;55.640;37.532;2023-04-29T16:14:03;6.03;;;2.63;;
43297;SDS011;28892;55.640;37.532;2023-04-29T16:16:29;7.65;;;3.55;;
43297;SDS011;28892;55.640;37.532;2023-04-29T16:18:55;5.40;;;2.30;;
43297;SDS011;28892;55.640;37.532;2023-04-29T16:21:21;5.28;;;2.80;;
43297;SDS011;28892;55.640;37.532;2023-04-29T16:23:48;4.30;;;2.30;;
43297;SDS011;28892;55.640;37.532;2023-04-29T16:26:16;6.30;;;2.72;;
43297;SDS011;28892;55.640;37.532;2023-04-29T16:28:43;5.13;;;2.75;;
43297;SDS011;28892;55.640;37.532;2023-04-29T16:31:10;3.72;;;2.60;;
43297;SDS011;28892;55.640;37.532;2023-04-29T16:33:43;8.13;;;3.45;;
43297;SDS011;28892;55.640;37.532;2023-04-29T16:36:55;4.95;;;2.22;;
43297;SDS011;28892;55.640;37.532;2023-04-29T16:39:30;3.00;;;2.22;;
43297;SDS011;28892;55.640;37.532;2023-04-29T16:45:15;5.55;;;2.55;;